createdAt,value
2023-02-11T00:01:22.438Z,-1.48
2023-02-11T00:03:49.662Z,-2.04
2023-02-11T00:06:17.301Z,-2.48
2023-02-11T00:08:45.746Z,-3.20
2023-02-11T00:11:17.253Z,-3.14
2023-02-11T00:13:46.395Z,-3.46
2023-02-11T00:16:17.322Z,-3.95
2023-02-11T00:18:44.614Z,-4.25
2023-02-11T00:21:15.111Z,-4.18
2023-02-11T00:23:42.484Z,-4.23
2023-02-11T00:26:15.749Z,-4.22
2023-02-11T00:28:44.422Z,-3.99
2023-02-11T00:31:12.982Z,-3.92
2023-02-11T00:33:41.720Z,-3.91
2023-02-11T00:36:12.543Z,-4.11
2023-02-11T00:38:39.599Z,-4.06
2023-02-11T00:41:06.650Z,-3.74
2023-02-11T00:43:33.783Z,-3.83
2023-02-11T00:46:00.954Z,-4.07
2023-02-11T00:48:29.005Z,-4.19
2023-02-11T00:50:56.145Z,-4.09
2023-02-11T00:53:23.701Z,-4.11
2023-02-11T00:55:52.087Z,-3.90
2023-02-11T00:58:19.165Z,-3.85
2023-02-11T01:00:46.087Z,-3.71
2023-02-11T01:03:14.073Z,-3.48
2023-02-11T01:05:41.082Z,-3.35
2023-02-11T01:08:08.106Z,-3.51
2023-02-11T01:10:35.185Z,-3.90
2023-02-11T01:13:02.659Z,-3.80
2023-02-11T01:15:30.426Z,-3.44
2023-02-11T01:17:57.542Z,-3.45
2023-02-11T01:20:28.199Z,-3.42
2023-02-11T01:22:57.100Z,-3.34
2023-02-11T01:25:24.115Z,-3.07
2023-02-11T01:27:51.085Z,-2.95
2023-02-11T01:30:18.179Z,-2.61
2023-02-11T01:32:46.066Z,-2.61
2023-02-11T01:35:14.092Z,-2.52
2023-02-11T01:37:42.268Z,-2.34
2023-02-11T01:40:17.396Z,-2.25
2023-02-11T01:42:45.491Z,-2.30
2023-02-11T01:45:47.403Z,-2.19
2023-02-11T01:48:43.481Z,-2.26
2023-02-11T01:51:18.919Z,-2.35
2023-02-11T01:54:07.305Z,-2.10
2023-02-11T01:56:57.144Z,-2.10
2023-02-11T01:59:35.142Z,-1.98
2023-02-11T02:02:08.656Z,-2.20
2023-02-11T02:04:45.163Z,-2.14
2023-02-11T02:07:19.885Z,-2.08
2023-02-11T02:09:52.271Z,-2.38
2023-02-11T02:12:19.281Z,-2.42
2023-02-11T02:14:46.244Z,-2.74
2023-02-11T02:17:44.809Z,-2.84
2023-02-11T02:20:41.035Z,-2.99
2023-02-11T02:23:18.274Z,-2.73
2023-02-11T02:26:16.981Z,-2.70
2023-02-11T02:29:19.859Z,-2.47
2023-02-11T02:32:25.289Z,-2.51
2023-02-11T02:35:10.876Z,-2.88
2023-02-11T02:37:56.770Z,-3.08
2023-02-11T02:40:34.864Z,-3.44
2023-02-11T02:43:03.316Z,-3.32
2023-02-11T02:45:31.204Z,-3.42
2023-02-11T02:47:59.809Z,-3.55
2023-02-11T02:50:32.058Z,-4.08
2023-02-11T02:53:28.315Z,-4.03
2023-02-11T02:56:05.373Z,-4.00
2023-02-11T02:58:45.992Z,-4.01
2023-02-11T03:01:55.342Z,-4.38
2023-02-11T03:04:28.574Z,-4.00
2023-02-11T03:07:07.114Z,-3.93
2023-02-11T03:09:49.836Z,-4.05
2023-02-11T03:12:18.167Z,-3.67
2023-02-11T03:14:47.387Z,-3.39
2023-02-11T03:17:16.736Z,-3.23
2023-02-11T03:19:48.419Z,-2.99
2023-02-11T03:22:29.724Z,-3.30
2023-02-11T03:24:57.045Z,-3.51
2023-02-11T03:27:41.800Z,-3.47
2023-02-11T03:30:08.948Z,-3.82
2023-02-11T03:32:41.228Z,-3.99
2023-02-11T03:35:15.769Z,-3.83
2023-02-11T03:38:07.743Z,-4.16
2023-02-11T03:40:39.523Z,-4.16
2023-02-11T03:43:17.266Z,-3.98
2023-02-11T03:45:48.655Z,-3.65
2023-02-11T03:48:20.660Z,-3.49
2023-02-11T03:50:51.434Z,-3.24
2023-02-11T03:53:20.838Z,-3.22
2023-02-11T03:55:49.889Z,-2.92
2023-02-11T03:58:18.194Z,-2.85
2023-02-11T04:00:45.535Z,-2.77
2023-02-11T04:03:13.799Z,-3.12
2023-02-11T04:05:41.969Z,-3.17
2023-02-11T04:08:09.599Z,-3.22
2023-02-11T04:10:37.540Z,-3.34
2023-02-11T04:13:05.606Z,-3.57
2023-02-11T04:15:33.672Z,-3.64
2023-02-11T04:18:02.204Z,-3.87
2023-02-11T04:20:29.781Z,-3.75
2023-02-11T04:22:56.671Z,-3.71
2023-02-11T04:25:23.746Z,-4.00
2023-02-11T04:27:51.789Z,-3.76
2023-02-11T04:30:19.855Z,-3.66
2023-02-11T04:32:46.824Z,-3.76
2023-02-11T04:35:14.773Z,-3.95
2023-02-11T04:37:41.653Z,-3.81
2023-02-11T04:40:09.178Z,-3.84
2023-02-11T04:42:36.091Z,-3.94
2023-02-11T04:45:04.446Z,-3.87
2023-02-11T04:47:32.359Z,-3.85
2023-02-11T04:49:59.406Z,-3.97
2023-02-11T04:52:26.417Z,-4.05
2023-02-11T04:54:53.612Z,-4.16
2023-02-11T04:57:21.589Z,-4.28
2023-02-11T04:59:49.128Z,-4.48
2023-02-11T05:02:17.367Z,-4.27
2023-02-11T05:04:44.505Z,-4.36
2023-02-11T05:07:12.612Z,-4.84
2023-02-11T05:09:40.703Z,-4.79
2023-02-11T05:12:07.705Z,-4.62
2023-02-11T05:14:35.082Z,-4.46
2023-02-11T05:17:03.357Z,-4.21
2023-02-11T05:19:32.370Z,-4.22
2023-02-11T05:22:03.310Z,-4.52
2023-02-11T05:24:34.620Z,-4.44
2023-02-11T05:27:03.780Z,-4.52
2023-02-11T05:29:31.046Z,-4.49
2023-02-11T05:31:59.356Z,-4.34
2023-02-11T05:34:26.474Z,-4.16
2023-02-11T05:36:54.921Z,-4.19
2023-02-11T05:39:22.801Z,-4.27
2023-02-11T05:41:49.782Z,-4.40
2023-02-11T05:44:17.595Z,-4.42
2023-02-11T05:46:44.762Z,-4.27
2023-02-11T05:49:11.736Z,-4.33
2023-02-11T05:51:40.557Z,-4.47
2023-02-11T05:54:07.636Z,-4.88
2023-02-11T05:56:35.005Z,-4.90
2023-02-11T05:59:02.477Z,-4.73
2023-02-11T06:01:31.275Z,-4.43
2023-02-11T06:03:58.350Z,-4.46
2023-02-11T06:06:27.675Z,-4.38
2023-02-11T06:08:54.784Z,-4.39
2023-02-11T06:11:22.674Z,-4.42
2023-02-11T06:13:51.535Z,-4.40
2023-02-11T06:16:19.515Z,-4.32
2023-02-11T06:18:49.090Z,-4.24
2023-02-11T06:21:16.267Z,-4.22
2023-02-11T06:23:44.170Z,-4.24
2023-02-11T06:26:18.765Z,-4.36
2023-02-11T06:28:46.218Z,-4.13
2023-02-11T06:31:16.000Z,-4.38
2023-02-11T06:33:44.198Z,-4.17
2023-02-11T06:36:18.151Z,-3.96
2023-02-11T06:38:46.046Z,-3.98
2023-02-11T06:41:14.825Z,-3.89
2023-02-11T06:43:42.978Z,-3.95
2023-02-11T06:46:10.426Z,-3.88
2023-02-11T06:48:37.992Z,-3.98
2023-02-11T06:51:08.148Z,-4.23
2023-02-11T06:53:37.247Z,-4.25
2023-02-11T06:56:09.274Z,-4.64
2023-02-11T06:58:37.764Z,-4.57
2023-02-11T07:01:12.280Z,-4.41
2023-02-11T07:03:43.255Z,-4.23
2023-02-11T07:06:18.007Z,-4.01
2023-02-11T07:08:46.907Z,-3.81
2023-02-11T07:11:19.470Z,-3.63
2023-02-11T07:13:48.370Z,-3.39
2023-02-11T07:16:17.615Z,-3.46
2023-02-11T07:18:46.958Z,-3.48
2023-02-11T07:21:17.503Z,-3.23
2023-02-11T07:23:45.349Z,-3.14
2023-02-11T07:26:16.308Z,-3.13
2023-02-11T07:28:45.871Z,-3.08
2023-02-11T07:31:18.248Z,-2.93
2023-02-11T07:33:46.475Z,-2.82
2023-02-11T07:36:16.133Z,-2.56
2023-02-11T07:38:44.315Z,-2.43
2023-02-11T07:41:15.432Z,-2.25
2023-02-11T07:43:43.634Z,-2.09
2023-02-11T07:46:20.243Z,-2.00
2023-02-11T07:48:48.653Z,-1.93
2023-02-11T07:51:34.645Z,-1.53
2023-02-11T07:54:02.534Z,-1.15
2023-02-11T07:56:30.530Z,-0.52
2023-02-11T07:59:01.867Z,-0.84
2023-02-11T08:01:34.107Z,-0.73
2023-02-11T08:04:05.391Z,-0.93
2023-02-11T08:06:35.248Z,-0.77
2023-02-11T08:09:09.738Z,-0.18
2023-02-11T08:11:37.478Z,-0.06
2023-02-11T08:14:05.034Z,-0.20
2023-02-11T08:16:36.770Z,-0.27
2023-02-11T08:19:10.719Z,-0.49
2023-02-11T08:21:38.240Z,-0.34
2023-02-11T08:24:06.747Z,0.07
2023-02-11T08:26:35.105Z,0.27
2023-02-11T08:29:06.624Z,0.22
2023-02-11T08:31:36.973Z,0.37
2023-02-11T08:34:04.386Z,0.56
2023-02-11T08:36:35.686Z,0.86
2023-02-11T08:39:18.592Z,0.91
2023-02-11T08:41:49.075Z,1.14
2023-02-11T08:44:17.348Z,1.39
2023-02-11T08:46:44.316Z,1.46
2023-02-11T08:49:11.771Z,1.41
2023-02-11T08:51:40.787Z,1.15
2023-02-11T08:54:10.157Z,1.14
2023-02-11T08:56:38.818Z,1.48
2023-02-11T08:59:07.483Z,1.56
2023-02-11T09:01:34.570Z,1.82
2023-02-11T09:04:01.610Z,2.01
2023-02-11T09:06:29.602Z,2.08
2023-02-11T09:08:58.611Z,2.45
2023-02-11T09:11:34.930Z,2.57
2023-02-11T09:14:03.586Z,2.78
2023-02-11T09:16:35.859Z,3.08
2023-02-11T09:19:05.438Z,2.93
2023-02-11T09:21:33.432Z,2.97
2023-02-11T09:24:00.256Z,3.15
2023-02-11T09:26:30.861Z,3.22
2023-02-11T09:28:59.170Z,3.67
2023-02-11T09:31:28.552Z,4.07
2023-02-11T09:34:00.683Z,3.80
2023-02-11T09:36:32.035Z,4.17
2023-02-11T09:39:00.813Z,4.12
2023-02-11T09:41:49.943Z,4.23
2023-02-11T09:44:24.705Z,4.50
2023-02-11T09:46:58.342Z,4.77
2023-02-11T09:49:48.927Z,4.40
2023-02-11T09:52:23.027Z,4.35
2023-02-11T09:54:57.841Z,4.44
2023-02-11T09:57:34.563Z,4.65
2023-02-11T10:00:24.333Z,5.01
2023-02-11T10:03:26.317Z,5.17
2023-02-11T10:06:23.285Z,5.24
2023-02-11T10:09:08.735Z,5.26
2023-02-11T10:11:55.766Z,5.28
2023-02-11T10:14:26.629Z,5.06
2023-02-11T10:17:04.766Z,5.37
2023-02-11T10:19:38.983Z,5.22
2023-02-11T10:22:06.813Z,5.18
2023-02-11T10:24:35.962Z,5.29
2023-02-11T10:27:16.701Z,5.00
2023-02-11T10:29:52.489Z,4.54
2023-02-11T10:32:26.596Z,4.75
2023-02-11T10:34:59.872Z,4.95
2023-02-11T10:37:28.446Z,5.12
2023-02-11T10:39:56.738Z,5.15
2023-02-11T10:42:25.296Z,5.22
2023-02-11T10:45:06.462Z,4.97
2023-02-11T10:47:39.576Z,4.44
2023-02-11T10:50:22.522Z,4.66
2023-02-11T10:52:50.829Z,4.61
2023-02-11T10:55:27.369Z,4.66
2023-02-11T10:58:00.892Z,4.69
2023-02-11T11:00:39.319Z,4.85
2023-02-11T11:03:22.123Z,5.01
2023-02-11T11:05:57.427Z,4.91
2023-02-11T11:08:48.149Z,5.00
2023-02-11T11:11:19.111Z,5.42
2023-02-11T11:13:53.279Z,4.82
2023-02-11T11:16:28.611Z,4.97
2023-02-11T11:19:08.302Z,4.96
2023-02-11T11:21:48.344Z,5.00
2023-02-11T11:24:34.635Z,4.76
2023-02-11T11:27:06.256Z,5.03
2023-02-11T11:29:47.726Z,5.12
2023-02-11T11:32:20.798Z,5.62
2023-02-11T11:34:52.523Z,5.81
2023-02-11T11:37:23.063Z,5.64
2023-02-11T11:40:03.694Z,5.87
2023-02-11T11:42:34.612Z,6.15
2023-02-11T11:45:26.028Z,6.45
2023-02-11T11:48:02.744Z,7.07
2023-02-11T11:50:50.698Z,7.53
2023-02-11T11:53:21.697Z,7.75
2023-02-11T11:56:05.732Z,7.15
2023-02-11T11:58:33.770Z,6.51
2023-02-11T12:01:16.869Z,6.61
2023-02-11T12:03:49.364Z,6.67
2023-02-11T12:06:55.563Z,6.14
2023-02-11T12:09:41.153Z,6.04
2023-02-11T12:12:46.985Z,5.86
2023-02-11T12:15:42.825Z,6.09
2023-02-11T12:18:36.339Z,6.23
2023-02-11T12:21:17.194Z,6.13
2023-02-11T12:24:17.347Z,6.21
2023-02-11T12:27:04.540Z,6.18
2023-02-11T12:29:33.404Z,6.52
2023-02-11T12:32:32.129Z,6.72
2023-02-11T12:35:27.117Z,7.69
2023-02-11T12:38:16.592Z,7.05
2023-02-11T12:41:44.059Z,7.07
2023-02-11T12:44:26.046Z,7.47
2023-02-11T12:47:11.510Z,7.37
2023-02-11T12:49:55.975Z,7.21
2023-02-11T12:52:46.711Z,7.32
2023-02-11T12:55:28.473Z,6.59
2023-02-11T12:57:59.878Z,7.26
2023-02-11T13:00:36.346Z,7.46
2023-02-11T13:03:16.908Z,7.31
2023-02-11T13:05:45.550Z,6.87
2023-02-11T13:08:23.199Z,6.70
2023-02-11T13:10:56.390Z,6.80
2023-02-11T13:13:30.770Z,7.13
2023-02-11T13:16:08.127Z,7.32
2023-02-11T13:18:51.583Z,6.58
2023-02-11T13:22:02.784Z,6.94
2023-02-11T13:24:49.524Z,7.14
2023-02-11T13:27:50.974Z,7.11
2023-02-11T13:30:47.002Z,6.94
2023-02-11T13:33:19.276Z,7.22
2023-02-11T13:35:58.817Z,7.08
2023-02-11T13:38:29.517Z,6.90
2023-02-11T13:41:18.245Z,7.04
2023-02-11T13:43:58.914Z,6.48
2023-02-11T13:46:30.203Z,6.81
2023-02-11T13:48:58.491Z,7.01
2023-02-11T13:51:42.875Z,6.79
2023-02-11T13:54:26.717Z,6.51
2023-02-11T13:57:22.202Z,6.41
2023-02-11T14:00:32.477Z,6.48
2023-02-11T14:03:51.574Z,6.48
2023-02-11T14:06:47.983Z,6.82
2023-02-11T14:09:14.872Z,6.95
2023-02-11T14:11:48.692Z,6.81
2023-02-11T14:14:30.687Z,6.76
2023-02-11T14:17:02.064Z,6.85
2023-02-11T14:19:34.837Z,6.90
2023-02-11T14:22:16.729Z,6.64
2023-02-11T14:24:54.350Z,6.43
2023-02-11T14:27:29.841Z,6.31
2023-02-11T14:30:12.483Z,6.17
2023-02-11T14:33:04.789Z,6.14
2023-02-11T14:35:54.716Z,5.67
2023-02-11T14:38:47.937Z,5.69
2023-02-11T14:41:28.754Z,5.63
2023-02-11T14:44:06.560Z,5.79
2023-02-11T14:46:35.172Z,5.89
2023-02-11T14:49:05.517Z,5.82
2023-02-11T14:51:38.573Z,5.43
2023-02-11T14:54:19.204Z,5.48
2023-02-11T14:56:47.075Z,5.69
2023-02-11T14:59:22.823Z,5.84
2023-02-11T15:01:54.871Z,5.80
2023-02-11T15:04:27.230Z,5.86
2023-02-11T15:06:57.581Z,5.73
2023-02-11T15:09:34.175Z,5.56
2023-02-11T15:12:02.067Z,5.60
2023-02-11T15:14:35.867Z,5.51
2023-02-11T15:17:08.069Z,5.39
2023-02-11T15:19:41.235Z,5.16
2023-02-11T15:22:18.770Z,5.13
2023-02-11T15:25:01.813Z,4.96
2023-02-11T15:27:37.430Z,5.13
2023-02-11T15:30:23.957Z,5.04
2023-02-11T15:32:59.381Z,5.21
2023-02-11T15:35:38.011Z,5.18
2023-02-11T15:38:05.733Z,4.96
2023-02-11T15:40:36.764Z,4.90
2023-02-11T15:43:10.105Z,4.76
2023-02-11T15:45:53.250Z,4.58
2023-02-11T15:48:52.618Z,4.41
2023-02-11T15:51:22.590Z,4.44
2023-02-11T15:53:56.858Z,4.42
2023-02-11T15:56:43.633Z,4.39
2023-02-11T15:59:35.860Z,4.08
2023-02-11T16:02:34.437Z,3.93
2023-02-11T16:05:24.401Z,3.73
2023-02-11T16:07:52.581Z,3.89
2023-02-11T16:10:54.417Z,3.68
2023-02-11T16:13:21.492Z,3.61
2023-02-11T16:15:48.341Z,3.49
2023-02-11T16:18:38.316Z,3.33
2023-02-11T16:21:16.860Z,3.17
2023-02-11T16:23:51.621Z,3.35
2023-02-11T16:26:43.230Z,3.38
2023-02-11T16:29:14.549Z,3.37
2023-02-11T16:31:44.982Z,3.43
2023-02-11T16:34:23.101Z,3.25
2023-02-11T16:36:52.279Z,3.24
2023-02-11T16:39:23.548Z,3.06
2023-02-11T16:41:52.667Z,3.02
2023-02-11T16:44:20.512Z,2.84
2023-02-11T16:46:48.633Z,2.97
2023-02-11T16:49:25.695Z,2.82
2023-02-11T16:51:57.020Z,2.63
2023-02-11T16:54:25.205Z,2.47
2023-02-11T16:56:52.427Z,2.30
2023-02-11T16:59:20.279Z,2.27
2023-02-11T17:01:51.451Z,2.39
2023-02-11T17:04:28.551Z,2.38
2023-02-11T17:06:58.228Z,2.39
2023-02-11T17:09:30.499Z,2.29
2023-02-11T17:12:00.242Z,2.31
2023-02-11T17:14:28.160Z,2.32
2023-02-11T17:16:56.921Z,2.20
2023-02-11T17:19:25.214Z,2.26
2023-02-11T17:21:54.187Z,2.17
2023-02-11T17:24:23.651Z,1.96
2023-02-11T17:26:51.227Z,1.89
2023-02-11T17:29:21.601Z,1.81
2023-02-11T17:31:48.632Z,1.75
2023-02-11T17:34:18.220Z,1.88
2023-02-11T17:36:47.122Z,1.79
2023-02-11T17:39:14.566Z,1.64
2023-02-11T17:41:42.787Z,1.52
2023-02-11T17:44:16.686Z,1.47
2023-02-11T17:46:44.266Z,1.44
2023-02-11T17:49:12.248Z,1.31
2023-02-11T17:51:40.376Z,1.52
2023-02-11T17:54:11.950Z,1.77
2023-02-11T17:56:39.335Z,1.63
2023-02-11T17:59:08.747Z,1.51
2023-02-11T18:01:37.916Z,1.35
2023-02-11T18:04:06.084Z,1.30
2023-02-11T18:06:36.510Z,1.13
2023-02-11T18:09:04.898Z,1.08
2023-02-11T18:11:34.234Z,1.18
2023-02-11T18:14:03.071Z,1.25
2023-02-11T18:16:31.197Z,1.47
2023-02-11T18:18:59.108Z,1.58
2023-02-11T18:21:28.089Z,1.66
2023-02-11T18:23:57.791Z,1.80
2023-02-11T18:26:28.316Z,2.06
2023-02-11T18:28:58.019Z,2.18
2023-02-11T18:31:26.839Z,1.77
2023-02-11T18:33:54.055Z,1.83
2023-02-11T18:36:22.329Z,1.74
2023-02-11T18:38:49.566Z,1.70
2023-02-11T18:41:16.467Z,1.76
2023-02-11T18:43:45.574Z,1.85
2023-02-11T18:46:14.992Z,1.69
2023-02-11T18:48:45.186Z,1.29
2023-02-11T18:51:16.608Z,1.69
2023-02-11T18:53:44.489Z,1.78
2023-02-11T18:56:15.906Z,1.94
2023-02-11T18:58:43.582Z,1.92
2023-02-11T19:01:21.253Z,2.02
2023-02-11T19:03:48.852Z,2.05
2023-02-11T19:06:25.776Z,2.05
2023-02-11T19:08:56.340Z,2.06
2023-02-11T19:11:45.568Z,2.27
2023-02-11T19:14:26.080Z,2.35
2023-02-11T19:16:57.150Z,2.35
2023-02-11T19:19:28.640Z,2.52
2023-02-11T19:21:59.083Z,2.36
2023-02-11T19:24:27.339Z,2.62
2023-02-11T19:27:01.745Z,2.64
2023-02-11T19:29:32.371Z,2.68
2023-02-11T19:32:06.034Z,2.55
2023-02-11T19:34:34.418Z,2.44
2023-02-11T19:37:02.332Z,2.26
2023-02-11T19:39:29.227Z,2.25
2023-02-11T19:41:56.309Z,2.22
2023-02-11T19:44:23.442Z,2.30
2023-02-11T19:46:53.189Z,2.33
2023-02-11T19:49:26.023Z,2.46
2023-02-11T19:51:57.496Z,2.39
2023-02-11T19:54:26.685Z,2.40
2023-02-11T19:56:54.980Z,2.40
2023-02-11T19:59:24.970Z,2.29
2023-02-11T20:01:53.500Z,2.37
2023-02-11T20:04:21.660Z,2.38
2023-02-11T20:06:49.581Z,2.45
2023-02-11T20:09:18.566Z,2.43
2023-02-11T20:11:45.563Z,2.49
2023-02-11T20:14:15.257Z,2.47
2023-02-11T20:16:49.141Z,2.47
2023-02-11T20:19:19.062Z,2.51
2023-02-11T20:21:48.657Z,2.54
2023-02-11T20:24:18.638Z,2.44
2023-02-11T20:26:48.783Z,2.40
2023-02-11T20:29:18.512Z,2.36
2023-02-11T20:31:46.228Z,2.33
2023-02-11T20:34:14.190Z,2.30
2023-02-11T20:36:44.597Z,2.28
2023-02-11T20:39:17.383Z,2.40
2023-02-11T20:41:46.739Z,2.29
2023-02-11T20:44:15.646Z,1.93
2023-02-11T20:46:48.510Z,2.05
2023-02-11T20:49:20.300Z,2.22
2023-02-11T20:51:47.779Z,1.93
2023-02-11T20:54:18.487Z,2.27
2023-02-11T20:56:48.264Z,2.33
2023-02-11T20:59:18.302Z,2.63
2023-02-11T21:01:49.053Z,2.85
2023-02-11T21:04:19.015Z,2.99
2023-02-11T21:06:49.121Z,3.13
2023-02-11T21:09:22.339Z,3.18
2023-02-11T21:11:51.757Z,3.10
2023-02-11T21:14:19.847Z,3.16
2023-02-11T21:16:48.409Z,3.30
2023-02-11T21:19:16.297Z,3.26
2023-02-11T21:21:43.583Z,3.32
2023-02-11T21:24:12.122Z,3.30
2023-02-11T21:26:40.012Z,3.33
2023-02-11T21:29:09.675Z,3.04
2023-02-11T21:31:39.095Z,3.18
2023-02-11T21:34:07.796Z,3.21
2023-02-11T21:36:35.773Z,3.15
2023-02-11T21:39:04.098Z,3.13
2023-02-11T21:41:32.126Z,3.15
2023-02-11T21:43:59.433Z,3.06
2023-02-11T21:46:30.747Z,2.87
2023-02-11T21:48:58.697Z,2.82
2023-02-11T21:51:27.574Z,2.71
2023-02-11T21:53:58.751Z,2.73
2023-02-11T21:56:28.954Z,2.93
2023-02-11T21:58:59.210Z,3.06
2023-02-11T22:01:33.848Z,3.18
2023-02-11T22:04:01.253Z,3.04
2023-02-11T22:06:31.535Z,2.76
2023-02-11T22:09:02.948Z,2.64
2023-02-11T22:11:30.881Z,2.58
2023-02-11T22:13:59.188Z,2.45
2023-02-11T22:16:27.775Z,2.40
2023-02-11T22:18:58.515Z,2.52
2023-02-11T22:21:26.915Z,2.54
2023-02-11T22:23:55.994Z,2.46
2023-02-11T22:26:27.299Z,2.43
2023-02-11T22:28:56.579Z,2.54
2023-02-11T22:31:28.540Z,2.74
2023-02-11T22:33:57.492Z,2.87
2023-02-11T22:36:29.893Z,2.90
2023-02-11T22:39:01.794Z,3.10
2023-02-11T22:41:29.166Z,3.21
2023-02-11T22:43:57.936Z,3.25
2023-02-11T22:46:26.267Z,3.28
2023-02-11T22:48:53.428Z,3.00
2023-02-11T22:51:26.742Z,2.96
2023-02-11T22:53:59.850Z,2.80
2023-02-11T22:56:28.987Z,2.84
2023-02-11T22:59:07.380Z,2.75
2023-02-11T23:01:35.358Z,2.76
2023-02-11T23:04:06.161Z,2.74
2023-02-11T23:06:33.559Z,2.73
2023-02-11T23:09:00.472Z,2.72
2023-02-11T23:11:30.888Z,2.64
2023-02-11T23:13:58.507Z,2.71
2023-02-11T23:16:29.364Z,2.77
2023-02-11T23:18:58.596Z,3.00
2023-02-11T23:21:29.481Z,3.01
2023-02-11T23:24:01.260Z,2.85
2023-02-11T23:26:30.525Z,2.99
2023-02-11T23:28:59.317Z,3.01
2023-02-11T23:31:34.132Z,3.02
2023-02-11T23:34:01.916Z,3.09
2023-02-11T23:36:29.484Z,3.28
2023-02-11T23:38:57.477Z,3.23
2023-02-11T23:41:25.154Z,3.11
2023-02-11T23:43:55.901Z,3.20
2023-02-11T23:46:26.142Z,3.05
2023-02-11T23:48:55.160Z,2.97
2023-02-11T23:51:23.641Z,2.99
2023-02-11T23:53:54.133Z,2.91
2023-02-11T23:56:26.725Z,2.84
2023-02-11T23:58:57.488Z,2.86
